createdAt,value
2023-03-26T00:02:45.208Z,8.30
2023-03-26T00:05:48.415Z,5.93
2023-03-26T00:08:51.924Z,3.93
2023-03-26T00:11:54.167Z,3.20
2023-03-26T00:14:56.309Z,1.48
2023-03-26T00:17:58.435Z,2.20
2023-03-26T00:21:06.225Z,3.22
2023-03-26T00:24:15.276Z,3.23
2023-03-26T00:27:17.726Z,2.20
2023-03-26T00:30:20.494Z,2.60
2023-03-26T00:33:23.161Z,1.65
2023-03-26T00:36:26.936Z,1.10
2023-03-26T00:39:33.757Z,1.10
2023-03-26T00:42:36.466Z,1.10
2023-03-26T00:45:38.528Z,1.10
2023-03-26T00:48:45.887Z,0.98
2023-03-26T00:51:48.774Z,0.80
2023-03-26T00:54:54.195Z,0.83
2023-03-26T00:57:56.502Z,0.77
2023-03-26T01:01:03.099Z,0.77
2023-03-26T01:04:27.910Z,0.68
2023-03-26T01:07:31.299Z,0.80
2023-03-26T01:10:38.785Z,0.83
2023-03-26T01:13:48.492Z,0.60
2023-03-26T01:16:56.962Z,0.80
2023-03-26T01:20:13.450Z,0.90
2023-03-26T01:23:23.939Z,0.80
2023-03-26T01:26:54.106Z,1.03
2023-03-26T01:30:02.092Z,0.80
2023-03-26T01:33:26.557Z,1.00
2023-03-26T01:36:51.793Z,0.70
2023-03-26T01:39:58.277Z,0.73
2023-03-26T01:43:27.591Z,0.60
2023-03-26T01:46:36.340Z,0.80
2023-03-26T01:49:39.083Z,0.70
2023-03-26T01:52:41.341Z,0.57
2023-03-26T01:55:56.230Z,0.80
2023-03-26T01:59:09.182Z,0.63
2023-03-26T02:02:17.291Z,0.60
2023-03-26T02:05:36.139Z,0.60
2023-03-26T02:08:42.794Z,0.60
2023-03-26T02:11:45.433Z,0.50
2023-03-26T02:14:47.638Z,0.43
2023-03-26T02:17:49.948Z,0.70
2023-03-26T02:20:56.011Z,0.70
2023-03-26T02:24:03.763Z,0.60
2023-03-26T02:27:09.637Z,0.40
2023-03-26T02:30:25.817Z,0.63
2023-03-26T02:33:32.554Z,0.50
2023-03-26T02:36:36.129Z,0.60
2023-03-26T02:39:39.607Z,0.52
2023-03-26T02:42:52.774Z,0.50
2023-03-26T02:45:55.414Z,0.67
2023-03-26T02:49:16.674Z,0.50
2023-03-26T02:52:19.704Z,0.57
2023-03-26T02:55:24.258Z,0.50
2023-03-26T02:58:30.188Z,0.70
2023-03-26T03:01:35.116Z,0.60
2023-03-26T03:04:37.547Z,0.70
2023-03-26T03:07:40.334Z,0.70
2023-03-26T03:10:43.644Z,0.50
2023-03-26T03:13:53.799Z,0.70
2023-03-26T03:17:01.382Z,0.80
2023-03-26T03:20:05.127Z,0.60
2023-03-26T03:23:09.028Z,0.50
2023-03-26T03:26:15.656Z,0.50
2023-03-26T03:29:21.385Z,0.50
2023-03-26T03:32:24.666Z,0.77
2023-03-26T03:35:30.485Z,0.60
2023-03-26T03:38:34.614Z,0.82
2023-03-26T03:41:37.026Z,0.85
2023-03-26T03:44:41.933Z,0.73
2023-03-26T03:47:56.441Z,0.77
2023-03-26T03:51:19.711Z,0.65
2023-03-26T03:54:24.774Z,0.40
2023-03-26T03:57:54.276Z,0.75
2023-03-26T04:01:04.275Z,0.50
2023-03-26T04:04:26.739Z,0.97
2023-03-26T04:07:40.446Z,1.20
2023-03-26T04:10:43.961Z,1.00
2023-03-26T04:14:21.300Z,0.70
2023-03-26T04:17:33.265Z,0.80
2023-03-26T04:20:35.457Z,0.80
2023-03-26T04:23:37.774Z,0.90
2023-03-26T04:26:58.327Z,0.98
2023-03-26T04:30:08.341Z,0.50
2023-03-26T04:33:15.480Z,0.68
2023-03-26T04:36:27.723Z,0.70
2023-03-26T04:39:30.428Z,0.68
2023-03-26T04:43:02.538Z,0.80
2023-03-26T04:46:35.174Z,0.90
2023-03-26T04:49:49.950Z,0.77
2023-03-26T04:52:57.263Z,0.80
2023-03-26T04:56:38.255Z,0.88
2023-03-26T05:00:15.030Z,0.75
2023-03-26T05:03:21.043Z,0.90
2023-03-26T05:06:28.020Z,0.63
2023-03-26T05:09:30.885Z,0.73
2023-03-26T05:12:52.118Z,1.00
2023-03-26T05:16:01.229Z,1.60
2023-03-26T05:19:20.818Z,0.70
2023-03-26T05:22:23.119Z,0.70
2023-03-26T05:25:44.362Z,1.00
2023-03-26T05:28:56.954Z,0.70
2023-03-26T05:32:12.423Z,0.93
2023-03-26T05:35:17.332Z,1.30
2023-03-26T05:38:19.830Z,0.80
2023-03-26T05:41:22.826Z,0.80
2023-03-26T05:44:25.648Z,0.77
2023-03-26T05:47:27.984Z,0.90
2023-03-26T05:50:33.480Z,0.70
2023-03-26T05:53:36.636Z,1.08
2023-03-26T05:57:01.700Z,0.80
2023-03-26T06:00:24.275Z,0.80
2023-03-26T06:03:28.919Z,0.85
2023-03-26T06:06:49.526Z,0.90
2023-03-26T06:09:52.166Z,0.88
2023-03-26T06:12:55.543Z,1.10
2023-03-26T06:15:58.431Z,0.63
2023-03-26T06:19:05.587Z,1.20
2023-03-26T06:22:21.364Z,1.13
2023-03-26T06:25:53.019Z,1.50
2023-03-26T06:29:14.678Z,1.30
2023-03-26T06:32:22.715Z,1.30
2023-03-26T06:35:32.512Z,1.10
2023-03-26T06:38:34.891Z,1.25
2023-03-26T06:41:39.716Z,0.88
2023-03-26T06:45:01.712Z,1.00
2023-03-26T06:48:09.922Z,2.42
2023-03-26T06:51:31.802Z,2.17
2023-03-26T06:54:52.475Z,2.75
2023-03-26T06:58:21.288Z,1.63
2023-03-26T07:01:41.491Z,1.40
2023-03-26T07:05:06.996Z,0.88
2023-03-26T07:08:27.598Z,5.05
2023-03-26T07:11:48.314Z,0.98
2023-03-26T07:15:13.741Z,1.00
2023-03-26T07:18:38.547Z,0.90
2023-03-26T07:21:43.808Z,1.00
2023-03-26T07:25:21.679Z,0.82
2023-03-26T07:29:34.009Z,0.70
2023-03-26T07:33:03.789Z,1.05
2023-03-26T07:36:31.148Z,0.60
2023-03-26T07:40:31.718Z,0.73
2023-03-26T07:44:44.103Z,0.90
2023-03-26T07:47:49.696Z,0.77
2023-03-26T07:51:30.114Z,0.60
2023-03-26T07:54:51.491Z,0.80
2023-03-26T07:58:21.260Z,0.80
2023-03-26T08:02:20.105Z,0.73
2023-03-26T08:05:43.517Z,0.70
2023-03-26T08:09:00.351Z,0.70
2023-03-26T08:12:59.907Z,0.83
2023-03-26T08:16:20.034Z,1.52
2023-03-26T08:19:41.301Z,0.60
2023-03-26T08:22:54.199Z,2.75
2023-03-26T08:26:22.367Z,1.27
2023-03-26T08:30:08.547Z,0.70
2023-03-26T08:33:14.017Z,0.90
2023-03-26T08:36:16.254Z,0.50
2023-03-26T08:39:19.827Z,0.60
2023-03-26T08:42:21.946Z,3.42
2023-03-26T08:45:27.159Z,0.93
2023-03-26T08:48:58.939Z,0.90
2023-03-26T08:52:09.985Z,0.90
2023-03-26T08:55:22.223Z,0.57
2023-03-26T08:58:39.389Z,0.70
2023-03-26T09:02:35.912Z,0.63
2023-03-26T09:05:56.739Z,1.23
2023-03-26T09:09:24.971Z,0.60
2023-03-26T09:12:46.544Z,0.47
2023-03-26T09:16:05.501Z,0.60
2023-03-26T09:19:44.621Z,0.70
2023-03-26T09:22:53.264Z,0.63
2023-03-26T09:26:04.400Z,0.50
2023-03-26T09:29:15.682Z,0.93
2023-03-26T09:32:30.056Z,0.55
2023-03-26T09:35:53.285Z,0.60
2023-03-26T09:39:33.247Z,0.50
2023-03-26T09:43:04.674Z,0.60
2023-03-26T09:46:31.641Z,0.50
2023-03-26T09:49:52.142Z,0.50
2023-03-26T09:53:12.916Z,0.70
2023-03-26T09:56:26.085Z,0.60
2023-03-26T09:59:38.384Z,0.40
2023-03-26T10:03:09.074Z,0.80
2023-03-26T10:06:26.643Z,1.55
2023-03-26T10:09:55.574Z,0.50
2023-03-26T10:13:14.412Z,2.67
2023-03-26T10:16:31.690Z,0.82
2023-03-26T10:20:04.949Z,0.65
2023-03-26T10:23:34.497Z,0.85
2023-03-26T10:27:09.309Z,1.03
2023-03-26T10:30:22.188Z,0.90
2023-03-26T10:33:39.448Z,1.00
2023-03-26T10:37:10.564Z,0.88
2023-03-26T10:40:27.857Z,0.75
2023-03-26T10:44:08.743Z,0.47
2023-03-26T10:47:14.242Z,1.00
2023-03-26T10:50:44.418Z,0.47
2023-03-26T10:53:58.820Z,0.70
2023-03-26T10:57:11.920Z,0.40
2023-03-26T11:00:25.673Z,0.27
2023-03-26T11:03:43.993Z,0.70
2023-03-26T11:07:07.412Z,0.30
2023-03-26T11:10:28.107Z,0.50
2023-03-26T11:13:59.663Z,0.50
2023-03-26T11:17:40.107Z,0.60
2023-03-26T11:20:51.230Z,0.80
2023-03-26T11:24:07.679Z,0.40
2023-03-26T11:27:25.870Z,0.40
2023-03-26T11:30:49.833Z,0.40
2023-03-26T11:33:56.579Z,0.80
2023-03-26T11:37:01.718Z,0.60
2023-03-26T11:43:17.246Z,0.80
2023-03-26T11:46:23.096Z,0.70
2023-03-26T11:49:26.537Z,0.60
2023-03-26T11:52:28.885Z,0.90
2023-03-26T11:55:31.764Z,0.75
2023-03-26T11:59:06.094Z,0.77
2023-03-26T12:02:11.640Z,0.57
2023-03-26T12:05:18.434Z,0.80
2023-03-26T12:08:27.415Z,0.57
2023-03-26T12:11:35.407Z,0.80
2023-03-26T12:14:42.882Z,0.68
2023-03-26T12:17:47.817Z,0.95
2023-03-26T12:21:13.202Z,0.50
2023-03-26T12:24:35.642Z,0.60
2023-03-26T12:27:42.022Z,0.50
2023-03-26T12:31:05.491Z,0.82
2023-03-26T12:34:15.476Z,0.50
2023-03-26T12:37:38.646Z,0.70
2023-03-26T12:40:42.716Z,0.63
2023-03-26T12:44:49.934Z,0.60
2023-03-26T12:47:55.363Z,0.50
2023-03-26T12:51:06.476Z,0.50
2023-03-26T12:54:31.467Z,0.27
2023-03-26T12:57:41.276Z,0.88
2023-03-26T13:01:02.470Z,0.63
2023-03-26T13:04:28.805Z,0.47
2023-03-26T13:07:49.679Z,0.88
2023-03-26T13:11:08.343Z,0.70
2023-03-26T13:14:31.416Z,1.10
2023-03-26T13:17:36.460Z,0.30
2023-03-26T13:20:50.584Z,0.40
2023-03-26T13:24:12.165Z,0.80
2023-03-26T13:27:21.045Z,0.87
2023-03-26T13:30:36.822Z,1.00
2023-03-26T13:33:47.647Z,1.85
2023-03-26T13:36:58.906Z,2.30
2023-03-26T13:40:33.554Z,2.05
2023-03-26T13:43:58.563Z,0.97
2023-03-26T13:47:07.330Z,0.50
2023-03-26T13:50:22.213Z,2.30
2023-03-26T13:53:35.088Z,3.55
2023-03-26T13:56:47.747Z,2.03
2023-03-26T14:00:06.794Z,1.90
2023-03-26T14:03:29.603Z,1.27
2023-03-26T14:06:42.188Z,0.80
2023-03-26T14:09:51.370Z,0.60
2023-03-26T14:13:05.754Z,0.98
2023-03-26T14:16:36.887Z,0.67
2023-03-26T14:19:50.072Z,0.63
2023-03-26T14:23:17.279Z,0.57
2023-03-26T14:26:37.490Z,0.80
2023-03-26T14:29:58.385Z,0.60
2023-03-26T14:33:28.162Z,0.80
2023-03-26T14:36:39.514Z,0.55
2023-03-26T14:40:19.234Z,0.52
2023-03-26T14:43:37.316Z,0.63
2023-03-26T14:47:21.718Z,0.65
2023-03-26T14:50:55.467Z,1.20
2023-03-26T14:54:05.803Z,0.88
2023-03-26T14:57:19.890Z,1.33
2023-03-26T15:00:31.110Z,1.85
2023-03-26T15:03:52.054Z,4.97
2023-03-26T15:07:09.058Z,8.13
2023-03-26T15:10:52.402Z,4.22
2023-03-26T15:14:18.542Z,4.82
2023-03-26T15:17:29.752Z,3.13
2023-03-26T15:21:09.607Z,2.10
2023-03-26T15:24:27.460Z,2.00
2023-03-26T15:27:54.068Z,0.75
2023-03-26T15:31:42.648Z,1.15
2023-03-26T15:35:06.038Z,1.25
2023-03-26T15:38:21.033Z,0.80
2023-03-26T15:41:49.133Z,1.10
2023-03-26T15:44:54.087Z,1.27
2023-03-26T15:47:56.331Z,1.60
2023-03-26T15:51:28.679Z,1.27
2023-03-26T15:54:45.637Z,1.20
2023-03-26T15:57:57.200Z,1.30
2023-03-26T16:01:09.028Z,1.02
2023-03-26T16:04:38.732Z,1.48
2023-03-26T16:07:53.106Z,1.50
2023-03-26T16:10:56.735Z,1.50
2023-03-26T16:14:20.466Z,1.07
2023-03-26T16:17:24.475Z,1.33
2023-03-26T16:20:43.921Z,1.77
2023-03-26T16:23:49.386Z,1.48
2023-03-26T16:26:51.375Z,1.08
2023-03-26T16:30:14.584Z,1.63
2023-03-26T16:33:21.223Z,3.10
2023-03-26T16:36:49.913Z,3.72
2023-03-26T16:39:52.791Z,7.05
2023-03-26T16:43:19.581Z,6.03
2023-03-26T16:46:49.097Z,2.20
2023-03-26T16:50:08.578Z,1.27
2023-03-26T16:53:42.771Z,2.30
2023-03-26T16:56:58.230Z,2.30
2023-03-26T17:00:18.711Z,2.00
2023-03-26T17:04:25.789Z,2.40
2023-03-26T17:08:02.782Z,2.00
2023-03-26T17:11:44.651Z,2.40
2023-03-26T17:15:30.722Z,2.00
2023-03-26T17:19:04.341Z,1.65
2023-03-26T17:22:18.697Z,1.40
2023-03-26T17:25:32.507Z,1.20
2023-03-26T17:29:07.992Z,1.63
2023-03-26T17:32:12.789Z,2.10
2023-03-26T17:35:15.779Z,2.50
2023-03-26T17:38:18.235Z,2.67
2023-03-26T17:42:08.506Z,4.15
2023-03-26T17:45:29.080Z,3.60
2023-03-26T17:48:38.116Z,2.90
2023-03-26T17:51:48.782Z,2.47
2023-03-26T17:54:55.510Z,2.10
2023-03-26T17:58:00.392Z,1.77
2023-03-26T18:01:12.442Z,1.77
2023-03-26T18:04:19.854Z,1.48
2023-03-26T18:07:46.364Z,3.35
2023-03-26T18:11:28.140Z,4.60
2023-03-26T18:15:13.011Z,3.97
2023-03-26T18:18:23.821Z,3.13
2023-03-26T18:21:39.287Z,2.88
2023-03-26T18:24:42.287Z,2.75
2023-03-26T18:27:44.984Z,2.73
2023-03-26T18:30:48.870Z,2.40
2023-03-26T18:33:56.971Z,2.42
2023-03-26T18:37:15.198Z,3.30
2023-03-26T18:40:21.452Z,3.22
2023-03-26T18:43:34.355Z,3.73
2023-03-26T18:46:37.464Z,2.08
2023-03-26T18:49:46.090Z,1.67
2023-03-26T18:52:48.769Z,1.58
2023-03-26T18:55:52.191Z,1.60
2023-03-26T18:58:58.358Z,1.70
2023-03-26T19:02:09.131Z,1.20
2023-03-26T19:05:16.789Z,1.27
2023-03-26T19:08:21.546Z,1.40
2023-03-26T19:11:26.383Z,0.88
2023-03-26T19:14:28.930Z,2.20
2023-03-26T19:17:38.727Z,2.85
2023-03-26T19:20:49.503Z,2.90
2023-03-26T19:23:52.982Z,2.40
2023-03-26T19:26:56.363Z,1.80
2023-03-26T19:29:58.701Z,2.10
2023-03-26T19:33:18.352Z,2.70
2023-03-26T19:36:24.553Z,1.60
2023-03-26T19:39:47.163Z,1.30
2023-03-26T19:42:50.834Z,1.40
2023-03-26T19:45:59.606Z,1.30
2023-03-26T19:49:04.460Z,1.33
2023-03-26T19:52:22.232Z,1.42
2023-03-26T19:55:24.617Z,1.10
2023-03-26T19:58:27.749Z,1.10
2023-03-26T20:01:31.967Z,1.40
2023-03-26T20:04:35.305Z,1.38
2023-03-26T20:07:39.346Z,1.27
2023-03-26T20:10:42.941Z,1.70
2023-03-26T20:13:45.428Z,1.50
2023-03-26T20:16:47.525Z,2.43
2023-03-26T20:20:05.899Z,3.67
2023-03-26T20:23:17.698Z,2.53
2023-03-26T20:26:21.395Z,3.63
2023-03-26T20:29:24.023Z,3.00
2023-03-26T20:32:27.472Z,2.70
2023-03-26T20:35:35.990Z,3.47
2023-03-26T20:38:40.000Z,3.33
2023-03-26T20:41:47.803Z,2.55
2023-03-26T20:44:49.871Z,3.30
2023-03-26T20:47:52.218Z,2.90
2023-03-26T20:50:54.714Z,3.20
2023-03-26T20:53:56.782Z,3.25
2023-03-26T20:56:58.923Z,2.85
2023-03-26T21:00:01.126Z,2.67
2023-03-26T21:03:03.515Z,2.50
2023-03-26T21:06:12.489Z,2.80
2023-03-26T21:09:23.830Z,2.30
2023-03-26T21:12:34.989Z,2.10
2023-03-26T21:15:37.507Z,2.03
2023-03-26T21:18:40.190Z,1.90
2023-03-26T21:21:52.590Z,1.90
2023-03-26T21:25:01.902Z,2.00
2023-03-26T21:28:06.904Z,1.90
2023-03-26T21:31:15.417Z,2.15
2023-03-26T21:34:17.978Z,2.10
2023-03-26T21:37:20.516Z,1.90
2023-03-26T21:40:22.943Z,1.80
2023-03-26T21:43:25.441Z,2.00
2023-03-26T21:46:27.760Z,1.70
2023-03-26T21:49:30.625Z,1.90
2023-03-26T21:52:33.291Z,1.80
2023-03-26T21:55:48.607Z,1.67
2023-03-26T21:59:10.949Z,1.50
2023-03-26T22:02:29.764Z,2.00
2023-03-26T22:05:37.882Z,2.07
2023-03-26T22:08:41.575Z,1.70
2023-03-26T22:11:43.967Z,1.85
2023-03-26T22:14:46.087Z,2.03
2023-03-26T22:21:08.324Z,3.10
2023-03-26T22:24:10.375Z,2.78
2023-03-26T22:27:13.232Z,2.47
2023-03-26T22:30:17.056Z,2.88
2023-03-26T22:33:19.177Z,2.20
2023-03-26T22:36:22.762Z,1.73
2023-03-26T22:39:26.015Z,1.35
2023-03-26T22:42:28.177Z,1.77
2023-03-26T22:45:30.301Z,1.80
2023-03-26T22:48:33.403Z,1.98
2023-03-26T22:51:35.810Z,1.80
2023-03-26T22:54:38.804Z,1.60
2023-03-26T22:57:41.501Z,1.70
2023-03-26T23:00:46.306Z,1.75
2023-03-26T23:03:48.902Z,1.80
2023-03-26T23:06:50.964Z,2.20
2023-03-26T23:09:53.870Z,1.92
2023-03-26T23:12:56.319Z,2.10
2023-03-26T23:15:58.709Z,2.20
2023-03-26T23:19:01.012Z,1.77
2023-03-26T23:22:03.304Z,1.40
2023-03-26T23:25:05.810Z,1.90
2023-03-26T23:28:08.422Z,2.15
2023-03-26T23:31:12.431Z,1.70
2023-03-26T23:34:16.901Z,1.90
2023-03-26T23:37:23.358Z,1.97
2023-03-26T23:40:27.530Z,1.70
2023-03-26T23:43:30.140Z,2.28
2023-03-26T23:46:41.622Z,2.15
2023-03-26T23:49:44.502Z,2.17
2023-03-26T23:52:47.051Z,2.10
2023-03-26T23:55:51.264Z,2.08
2023-03-26T23:58:55.427Z,2.03
